createdAt,value
2022-10-09T00:01:12.815Z,98.24
2022-10-09T00:03:41.892Z,98.24
2022-10-09T00:06:11.812Z,97.92
2022-10-09T00:08:39.671Z,97.68
2022-10-09T00:11:07.832Z,97.53
2022-10-09T00:13:34.699Z,97.54
2022-10-09T00:16:07.332Z,97.52
2022-10-09T00:18:34.710Z,97.22
2022-10-09T00:21:01.504Z,97.03
2022-10-09T00:23:28.322Z,97.24
2022-10-09T00:26:00.463Z,96.31
2022-10-09T00:28:29.753Z,96.43
2022-10-09T00:30:56.363Z,96.20
2022-10-09T00:33:22.951Z,96.70
2022-10-09T00:35:49.636Z,96.57
2022-10-09T00:38:16.419Z,96.25
2022-10-09T00:40:43.101Z,96.91
2022-10-09T00:43:19.210Z,96.77
2022-10-09T00:45:52.891Z,97.04
2022-10-09T00:48:19.967Z,96.02
2022-10-09T00:50:57.631Z,97.78
2022-10-09T00:53:28.584Z,97.99
2022-10-09T00:55:55.621Z,97.76
2022-10-09T00:58:23.802Z,97.07
2022-10-09T01:00:50.273Z,98.12
2022-10-09T01:03:16.723Z,98.42
2022-10-09T01:05:57.732Z,98.20
2022-10-09T01:08:35.005Z,99.10
2022-10-09T01:11:16.210Z,98.72
2022-10-09T01:14:04.969Z,97.67
2022-10-09T01:16:38.871Z,97.61
2022-10-09T01:19:38.269Z,98.21
2022-10-09T01:22:16.962Z,99.50
2022-10-09T01:25:01.525Z,99.61
2022-10-09T01:27:29.010Z,100.00
2022-10-09T01:30:03.422Z,100.00
2022-10-09T01:32:33.438Z,99.69
2022-10-09T01:35:01.701Z,99.88
2022-10-09T01:37:30.599Z,98.32
2022-10-09T01:39:58.475Z,97.75
2022-10-09T01:42:27.390Z,98.09
2022-10-09T01:44:53.775Z,99.16
2022-10-09T01:47:21.828Z,99.10
2022-10-09T01:50:29.626Z,99.27
2022-10-09T01:53:01.655Z,98.77
2022-10-09T01:55:43.325Z,97.79
2022-10-09T01:58:18.861Z,97.64
2022-10-09T02:01:17.382Z,98.58
2022-10-09T02:03:48.458Z,98.98
2022-10-09T02:06:16.802Z,99.07
2022-10-09T02:08:45.989Z,99.39
2022-10-09T02:11:17.221Z,98.57
2022-10-09T02:13:45.737Z,98.65
2022-10-09T02:16:23.190Z,98.49
2022-10-09T02:19:01.537Z,99.48
2022-10-09T02:21:39.770Z,100.00
2022-10-09T02:24:09.900Z,100.00
2022-10-09T02:26:37.456Z,100.00
2022-10-09T02:29:04.448Z,99.83
2022-10-09T02:31:33.869Z,99.35
2022-10-09T02:34:02.859Z,98.39
2022-10-09T02:36:31.038Z,98.71
2022-10-09T02:38:58.546Z,99.20
2022-10-09T02:41:25.817Z,99.44
2022-10-09T02:43:52.537Z,98.96
2022-10-09T02:46:19.254Z,99.27
2022-10-09T02:48:45.748Z,99.28
2022-10-09T02:51:12.323Z,99.89
2022-10-09T02:53:38.752Z,99.10
2022-10-09T02:56:05.503Z,98.91
2022-10-09T02:58:36.769Z,98.94
2022-10-09T03:01:04.896Z,99.07
2022-10-09T03:03:31.331Z,99.15
2022-10-09T03:06:09.563Z,98.83
2022-10-09T03:08:41.094Z,99.52
2022-10-09T03:11:08.360Z,99.38
2022-10-09T03:13:35.130Z,99.47
2022-10-09T03:16:06.382Z,99.20
2022-10-09T03:18:32.869Z,99.43
2022-10-09T03:20:59.365Z,99.36
2022-10-09T03:23:26.704Z,99.29
2022-10-09T03:26:01.022Z,100.00
2022-10-09T03:28:28.874Z,99.37
2022-10-09T03:30:55.598Z,99.46
2022-10-09T03:33:22.534Z,99.89
2022-10-09T03:35:49.980Z,99.72
2022-10-09T03:38:16.892Z,100.00
2022-10-09T03:40:43.566Z,99.48
2022-10-09T03:43:10.083Z,99.47
2022-10-09T03:45:40.648Z,100.00
2022-10-09T03:48:07.958Z,100.00
2022-10-09T03:50:34.353Z,99.60
2022-10-09T03:53:00.839Z,99.04
2022-10-09T03:55:27.247Z,99.13
2022-10-09T03:57:53.625Z,98.87
2022-10-09T04:00:20.173Z,99.12
2022-10-09T04:02:46.913Z,99.00
2022-10-09T04:05:13.754Z,97.86
2022-10-09T04:07:40.118Z,97.43
2022-10-09T04:10:06.703Z,97.43
2022-10-09T04:12:33.123Z,98.99
2022-10-09T04:14:59.533Z,98.57
2022-10-09T04:17:25.971Z,97.98
2022-10-09T04:19:52.369Z,97.95
2022-10-09T04:22:18.846Z,98.57
2022-10-09T04:24:45.273Z,98.65
2022-10-09T04:27:11.682Z,98.46
2022-10-09T04:29:38.251Z,98.60
2022-10-09T04:32:04.665Z,98.08
2022-10-09T04:34:31.041Z,97.93
2022-10-09T04:37:01.639Z,99.14
2022-10-09T04:39:28.069Z,99.20
2022-10-09T04:41:54.496Z,98.84
2022-10-09T04:44:20.906Z,98.70
2022-10-09T04:46:50.418Z,99.25
2022-10-09T04:49:17.194Z,99.28
2022-10-09T04:51:44.544Z,98.87
2022-10-09T04:54:12.079Z,98.96
2022-10-09T04:56:38.771Z,98.19
2022-10-09T04:59:05.221Z,97.99
2022-10-09T05:01:35.740Z,98.40
2022-10-09T05:04:04.593Z,98.82
2022-10-09T05:06:30.987Z,99.12
2022-10-09T05:08:57.415Z,98.57
2022-10-09T05:11:25.475Z,98.35
2022-10-09T05:13:56.304Z,98.36
2022-10-09T05:16:28.327Z,98.41
2022-10-09T05:18:57.048Z,99.45
2022-10-09T05:21:24.431Z,98.71
2022-10-09T05:23:52.535Z,97.68
2022-10-09T05:26:20.697Z,98.18
2022-10-09T05:28:47.430Z,97.72
2022-10-09T05:31:29.293Z,97.71
2022-10-09T05:33:59.051Z,97.53
2022-10-09T05:36:25.450Z,97.56
2022-10-09T05:38:52.885Z,97.52
2022-10-09T05:41:20.369Z,97.44
2022-10-09T05:43:48.961Z,97.72
2022-10-09T05:46:20.894Z,97.13
2022-10-09T05:48:52.498Z,97.39
2022-10-09T05:51:22.200Z,98.10
2022-10-09T05:53:49.669Z,98.27
2022-10-09T05:56:21.846Z,97.71
2022-10-09T05:58:58.352Z,96.80
2022-10-09T06:01:26.485Z,97.44
2022-10-09T06:03:55.218Z,98.47
2022-10-09T06:06:23.616Z,98.31
2022-10-09T06:08:50.861Z,98.95
2022-10-09T06:11:21.433Z,98.60
2022-10-09T06:13:48.943Z,97.14
2022-10-09T06:16:17.443Z,97.16
2022-10-09T06:18:49.254Z,96.72
2022-10-09T06:21:16.997Z,97.83
2022-10-09T06:23:43.609Z,97.29
2022-10-09T06:26:12.648Z,97.20
2022-10-09T06:28:39.640Z,97.97
2022-10-09T06:31:09.034Z,97.62
2022-10-09T06:33:37.835Z,97.84
2022-10-09T06:36:20.618Z,96.96
2022-10-09T06:38:49.234Z,97.25
2022-10-09T06:41:22.223Z,97.18
2022-10-09T06:43:55.654Z,97.09
2022-10-09T06:46:24.819Z,97.09
2022-10-09T06:48:55.551Z,96.95
2022-10-09T06:51:30.008Z,97.63
2022-10-09T06:54:01.204Z,97.11
2022-10-09T06:56:31.836Z,97.14
2022-10-09T06:59:04.327Z,96.31
2022-10-09T07:01:32.227Z,97.64
2022-10-09T07:04:09.075Z,97.97
2022-10-09T07:06:39.795Z,97.75
2022-10-09T07:09:08.955Z,97.39
2022-10-09T07:11:38.425Z,96.36
2022-10-09T07:14:08.723Z,95.23
2022-10-09T07:16:37.881Z,95.81
2022-10-09T07:19:07.539Z,96.01
2022-10-09T07:21:35.688Z,95.40
2022-10-09T07:24:03.255Z,94.48
2022-10-09T07:26:31.964Z,94.84
2022-10-09T07:29:11.086Z,95.15
2022-10-09T07:31:46.976Z,95.24
2022-10-09T07:34:13.434Z,94.67
2022-10-09T07:36:39.878Z,95.11
2022-10-09T07:39:06.312Z,95.29
2022-10-09T07:41:33.185Z,95.67
2022-10-09T07:44:06.658Z,95.39
2022-10-09T07:46:35.390Z,93.73
2022-10-09T07:49:02.455Z,93.96
2022-10-09T07:51:30.414Z,93.48
2022-10-09T07:53:57.555Z,93.83
2022-10-09T07:56:29.185Z,91.95
2022-10-09T07:58:58.271Z,92.38
2022-10-09T08:01:27.893Z,92.69
2022-10-09T08:03:54.958Z,94.18
2022-10-09T08:06:21.943Z,94.05
2022-10-09T08:08:56.825Z,93.87
2022-10-09T08:11:24.870Z,93.99
2022-10-09T08:13:52.112Z,92.91
2022-10-09T08:16:20.625Z,92.12
2022-10-09T08:18:47.328Z,92.32
2022-10-09T08:21:18.806Z,91.87
2022-10-09T08:23:45.970Z,91.14
2022-10-09T08:26:19.512Z,91.28
2022-10-09T08:28:54.622Z,90.06
2022-10-09T08:31:22.590Z,88.96
2022-10-09T08:33:53.108Z,88.56
2022-10-09T08:36:19.894Z,89.77
2022-10-09T08:38:47.925Z,89.36
2022-10-09T08:41:25.882Z,89.39
2022-10-09T08:44:01.233Z,90.51
2022-10-09T08:46:39.657Z,90.21
2022-10-09T08:49:08.900Z,90.00
2022-10-09T08:51:38.469Z,89.32
2022-10-09T08:54:20.059Z,88.76
2022-10-09T08:56:47.679Z,87.80
2022-10-09T08:59:14.130Z,86.89
2022-10-09T09:01:56.970Z,89.02
2022-10-09T09:04:44.953Z,88.80
2022-10-09T09:07:49.877Z,89.35
2022-10-09T09:10:29.742Z,88.82
2022-10-09T09:13:23.973Z,88.00
2022-10-09T09:16:08.489Z,87.70
2022-10-09T09:18:52.740Z,88.82
2022-10-09T09:21:42.177Z,88.54
2022-10-09T09:24:17.165Z,88.13
2022-10-09T09:26:47.252Z,87.83
2022-10-09T09:29:17.601Z,86.81
2022-10-09T09:31:46.362Z,86.65
2022-10-09T09:34:28.935Z,87.69
2022-10-09T09:36:58.343Z,86.52
2022-10-09T09:42:17.510Z,86.20
2022-10-09T09:44:57.795Z,85.48
2022-10-09T09:47:33.080Z,85.79
2022-10-09T09:50:01.716Z,85.15
2022-10-09T09:52:36.991Z,85.67
2022-10-09T09:55:05.018Z,85.91
2022-10-09T09:57:37.474Z,85.64
2022-10-09T10:00:22.867Z,84.59
2022-10-09T10:02:50.549Z,84.26
2022-10-09T10:05:24.401Z,84.49
2022-10-09T10:07:51.679Z,84.85
2022-10-09T10:10:26.681Z,84.90
2022-10-09T10:12:55.178Z,84.21
2022-10-09T10:15:36.128Z,84.68
2022-10-09T10:18:12.717Z,85.12
2022-10-09T10:20:49.235Z,84.77
2022-10-09T10:23:43.634Z,84.46
2022-10-09T10:26:30.210Z,84.16
2022-10-09T10:29:12.903Z,84.56
2022-10-09T10:31:57.451Z,85.08
2022-10-09T10:34:32.738Z,84.96
2022-10-09T10:37:14.386Z,84.55
2022-10-09T10:39:50.850Z,85.33
2022-10-09T10:42:37.132Z,85.45
2022-10-09T10:45:19.386Z,85.54
2022-10-09T10:47:55.101Z,85.30
2022-10-09T10:50:30.869Z,85.32
2022-10-09T10:53:36.084Z,84.96
2022-10-09T10:56:25.743Z,83.15
2022-10-09T10:59:19.030Z,82.45
2022-10-09T11:02:04.766Z,81.38
2022-10-09T11:04:36.684Z,82.46
2022-10-09T11:07:31.533Z,82.42
2022-10-09T11:10:31.444Z,82.87
2022-10-09T11:13:15.337Z,82.42
2022-10-09T11:16:19.974Z,82.43
2022-10-09T11:19:27.985Z,80.78
2022-10-09T11:22:26.354Z,82.00
2022-10-09T11:25:12.783Z,80.82
2022-10-09T11:28:01.921Z,82.59
2022-10-09T11:30:32.648Z,80.08
2022-10-09T11:33:23.921Z,80.67
2022-10-09T11:36:01.302Z,79.93
2022-10-09T11:38:41.870Z,79.93
2022-10-09T11:41:08.562Z,79.76
2022-10-09T11:43:49.752Z,80.01
2022-10-09T11:46:40.808Z,79.98
2022-10-09T11:49:16.367Z,79.82
2022-10-09T11:51:50.348Z,79.82
2022-10-09T11:54:32.890Z,79.36
2022-10-09T11:57:05.935Z,80.09
2022-10-09T11:59:38.122Z,80.53
2022-10-09T12:02:36.021Z,80.34
2022-10-09T12:05:31.952Z,79.05
2022-10-09T12:08:19.361Z,79.32
2022-10-09T12:10:54.490Z,78.33
2022-10-09T12:13:55.441Z,78.21
2022-10-09T12:16:48.127Z,76.86
2022-10-09T12:19:26.576Z,77.66
2022-10-09T12:22:14.733Z,76.84
2022-10-09T12:24:54.805Z,75.11
2022-10-09T12:27:26.998Z,78.27
2022-10-09T12:30:17.339Z,78.31
2022-10-09T12:32:49.502Z,78.08
2022-10-09T12:35:26.088Z,77.68
2022-10-09T12:37:52.407Z,76.18
2022-10-09T12:40:25.719Z,77.60
2022-10-09T12:42:55.336Z,77.74
2022-10-09T12:45:30.342Z,77.39
2022-10-09T12:48:09.932Z,77.32
2022-10-09T12:50:37.620Z,76.78
2022-10-09T12:53:19.517Z,77.73
2022-10-09T16:58:28.556Z,89.68
2022-10-09T17:01:00.590Z,89.25
2022-10-09T17:03:27.514Z,89.46
2022-10-09T17:05:53.950Z,89.50
2022-10-09T17:08:20.460Z,89.49
2022-10-09T17:10:46.907Z,89.15
2022-10-09T17:13:13.369Z,89.89
2022-10-09T17:15:40.648Z,89.62
2022-10-09T17:18:07.779Z,89.37
2022-10-09T17:20:38.667Z,90.11
2022-10-09T17:23:05.864Z,90.34
2022-10-09T17:25:33.235Z,89.38
2022-10-09T17:28:00.689Z,89.60
2022-10-09T17:30:37.381Z,89.97
2022-10-09T17:33:05.943Z,90.53
2022-10-09T17:35:33.418Z,90.93
2022-10-09T17:38:01.851Z,90.24
2022-10-09T17:40:28.467Z,90.73
2022-10-09T17:42:54.944Z,91.02
2022-10-09T17:45:21.343Z,89.97
2022-10-09T17:47:49.235Z,90.22
2022-10-09T17:50:15.742Z,90.63
2022-10-09T17:52:42.200Z,91.33
2022-10-09T17:55:08.771Z,91.06
2022-10-09T17:57:35.470Z,90.78
2022-10-09T18:00:01.980Z,90.91
2022-10-09T18:02:28.455Z,90.41
2022-10-09T18:04:57.338Z,90.30
2022-10-09T18:07:29.937Z,90.57
2022-10-09T18:09:56.352Z,90.38
2022-10-09T18:12:23.060Z,90.84
2022-10-09T18:14:50.495Z,91.02
2022-10-09T18:17:17.863Z,91.43
2022-10-09T18:19:44.274Z,91.63
2022-10-09T18:22:10.693Z,91.36
2022-10-09T18:24:37.120Z,92.37
2022-10-09T18:27:03.862Z,91.76
2022-10-09T18:29:32.231Z,90.82
2022-10-09T18:31:58.713Z,90.64
2022-10-09T18:34:26.206Z,91.13
2022-10-09T18:36:58.237Z,91.97
2022-10-09T18:39:28.703Z,91.78
2022-10-09T18:42:02.109Z,91.41
2022-10-09T18:44:30.219Z,91.98
2022-10-09T18:46:58.945Z,91.12
2022-10-09T18:49:31.024Z,91.43
2022-10-09T18:52:03.648Z,91.54
2022-10-09T18:54:30.973Z,91.60
2022-10-09T18:56:57.731Z,92.23
2022-10-09T18:59:27.293Z,92.03
2022-10-09T19:01:55.784Z,91.60
2022-10-09T19:04:22.273Z,91.77
2022-10-09T19:06:48.695Z,91.73
2022-10-09T19:09:21.516Z,92.09
2022-10-09T19:11:48.113Z,92.69
2022-10-09T19:14:22.816Z,92.37
2022-10-09T19:16:49.344Z,92.85
2022-10-09T19:19:17.821Z,93.76
2022-10-09T19:21:44.424Z,93.14
2022-10-09T19:24:13.166Z,93.00
2022-10-09T19:26:41.378Z,93.42
2022-10-09T19:29:08.024Z,93.17
2022-10-09T19:31:35.735Z,92.89
2022-10-09T19:34:04.429Z,92.60
2022-10-09T19:36:50.621Z,93.01
2022-10-09T19:39:18.859Z,94.44
2022-10-09T19:41:45.319Z,95.21
2022-10-09T19:44:15.867Z,94.69
2022-10-09T19:46:42.261Z,94.34
2022-10-09T19:49:09.437Z,93.64
2022-10-09T19:51:36.878Z,94.76
2022-10-09T19:54:04.957Z,95.31
2022-10-09T19:56:34.015Z,95.31
2022-10-09T19:59:02.549Z,95.14
2022-10-09T20:01:30.515Z,97.63
2022-10-09T20:03:59.909Z,97.38
2022-10-09T20:06:28.208Z,97.20
2022-10-09T20:08:55.331Z,96.10
2022-10-09T20:11:22.706Z,97.03
2022-10-09T20:13:55.744Z,96.92
2022-10-09T20:16:23.685Z,96.87
2022-10-09T20:18:50.108Z,98.32
2022-10-09T20:21:18.129Z,99.43
2022-10-09T20:23:44.772Z,99.48
2022-10-09T20:26:16.422Z,99.59
2022-10-09T20:29:01.239Z,100.00
2022-10-09T20:31:27.945Z,100.00
2022-10-09T20:33:54.863Z,100.00
2022-10-09T20:36:25.327Z,100.00
2022-10-09T20:38:53.981Z,100.00
2022-10-09T20:41:20.383Z,100.00
2022-10-09T20:43:50.446Z,100.00
2022-10-09T20:46:16.934Z,100.00
2022-10-09T20:48:44.054Z,100.00
2022-10-09T20:51:10.747Z,100.00
2022-10-09T20:53:37.239Z,100.00
2022-10-09T20:56:08.757Z,100.00
2022-10-09T20:58:36.240Z,100.00
2022-10-09T21:01:07.345Z,100.00
2022-10-09T21:03:35.085Z,100.00
2022-10-09T21:06:06.599Z,100.00
2022-10-09T21:08:33.672Z,100.00
2022-10-09T21:11:00.304Z,100.00
2022-10-09T21:13:26.977Z,100.00
2022-10-09T21:15:53.600Z,100.00
2022-10-09T21:18:26.291Z,100.00
2022-10-09T21:20:52.710Z,100.00
2022-10-09T21:23:19.262Z,100.00
2022-10-09T21:25:50.501Z,100.00
2022-10-09T21:28:18.357Z,100.00
2022-10-09T21:30:46.215Z,100.00
2022-10-09T21:33:12.676Z,100.00
2022-10-09T21:35:45.780Z,100.00
2022-10-09T21:38:14.840Z,100.00
2022-10-09T21:40:41.820Z,100.00
2022-10-09T21:43:08.797Z,100.00
2022-10-09T21:45:35.821Z,100.00
2022-10-09T21:48:02.279Z,100.00
2022-10-09T21:50:29.788Z,100.00
2022-10-09T21:52:56.183Z,100.00
2022-10-09T21:55:22.580Z,100.00
2022-10-09T21:57:49.251Z,100.00
2022-10-09T22:00:15.926Z,100.00
2022-10-09T22:02:42.653Z,100.00
2022-10-09T22:05:09.732Z,100.00
2022-10-09T22:07:36.519Z,100.00
2022-10-09T22:10:03.856Z,100.00
2022-10-09T22:12:30.252Z,100.00
2022-10-09T22:14:56.793Z,100.00
2022-10-09T22:17:23.177Z,100.00
2022-10-09T22:19:49.655Z,100.00
2022-10-09T22:22:16.080Z,100.00
2022-10-09T22:24:42.531Z,100.00
2022-10-09T22:27:08.947Z,100.00
2022-10-09T22:29:36.286Z,100.00
2022-10-09T22:32:02.671Z,100.00
2022-10-09T22:34:29.083Z,100.00
2022-10-09T22:36:55.470Z,100.00
2022-10-09T22:39:21.934Z,100.00
2022-10-09T22:41:48.382Z,100.00
2022-10-09T22:44:20.990Z,100.00
2022-10-09T22:46:50.318Z,100.00
2022-10-09T22:49:16.999Z,100.00
2022-10-09T22:51:44.513Z,100.00
2022-10-09T22:54:12.786Z,100.00
2022-10-09T22:56:42.595Z,100.00
2022-10-09T22:59:15.262Z,100.00
2022-10-09T23:01:48.457Z,100.00
2022-10-09T23:04:16.828Z,100.00
2022-10-09T23:06:44.586Z,100.00
2022-10-09T23:09:13.639Z,100.00
2022-10-09T23:11:40.355Z,100.00
2022-10-09T23:14:07.413Z,100.00
2022-10-09T23:16:34.658Z,100.00
2022-10-09T23:19:06.489Z,100.00
2022-10-09T23:21:35.977Z,100.00
2022-10-09T23:24:02.448Z,100.00
2022-10-09T23:26:31.055Z,100.00
2022-10-09T23:29:06.758Z,100.00
2022-10-09T23:31:35.957Z,100.00
2022-10-09T23:34:04.375Z,100.00
2022-10-09T23:36:31.214Z,100.00
2022-10-09T23:38:59.175Z,100.00
2022-10-09T23:41:27.835Z,100.00
2022-10-09T23:43:54.955Z,100.00
2022-10-09T23:46:24.088Z,99.80
2022-10-09T23:48:51.239Z,100.00
2022-10-09T23:51:19.544Z,100.00
2022-10-09T23:53:46.728Z,100.00
2022-10-09T23:56:25.143Z,100.00
2022-10-09T23:58:52.481Z,100.00
